Time;durP1;ratioP1;P1;durP2;ratioP2;P2;SDS_P1;SDS_P2;PMS_P1;PMS_P2;Temp;Humidity;BMP_temperature;BMP_pressure;BME280_temperature;BME280_humidity;BME280_pressure;Samples;Min_cycle;Max_cycle;Signal;HPM_P1;HPM_P2
2021/11/09 00:01:48;;;;;;;32.10;29.30;;;;;;;;;;5018947;28;20454;-89
2021/11/09 00:04:15;;;;;;;34.40;29.53;;;;;;;;;;5037829;28;20753;-89
2021/11/09 00:06:46;;;;;;;30.03;27.17;;;;;;;;;;5036756;28;20490;-90
2021/11/09 00:09:17;;;;;;;30.97;28.43;;;;;;;;;;5019247;28;20430;-89
2021/11/09 00:11:45;;;;;;;31.23;28.07;;;;;;;;;;5036129;28;21000;-89
2021/11/09 00:14:13;;;;;;;32.17;28.80;;;;;;;;;;5036093;28;20449;-88
2021/11/09 00:16:40;;;;;;;30.90;28.43;;;;;;;;;;5036423;28;20417;-89
2021/11/09 00:19:08;;;;;;;29.87;27.00;;;;;;;;;;5036576;28;20410;-88
2021/11/09 00:21:35;;;;;;;29.97;26.83;;;;;;;;;;5036350;28;20417;-88
2021/11/09 00:24:03;;;;;;;32.23;27.30;;;;;;;;;;5036260;28;20507;-89
2021/11/09 00:26:32;;;;;;;29.73;26.83;;;;;;;;;;5036197;28;20831;-88
2021/11/09 00:28:59;;;;;;;35.40;29.53;;;;;;;;;;5035848;28;20937;-87
2021/11/09 00:31:27;;;;;;;30.13;26.93;;;;;;;;;;5035920;28;20406;-89
2021/11/09 00:33:54;;;;;;;28.87;26.20;;;;;;;;;;5036650;28;20455;-88
2021/11/09 00:36:23;;;;;;;29.87;26.80;;;;;;;;;;5036169;28;20475;-88
2021/11/09 00:38:51;;;;;;;30.60;27.70;;;;;;;;;;5035685;28;20487;-88
2021/11/09 00:41:18;;;;;;;31.00;27.80;;;;;;;;;;5036691;28;20413;-89
2021/11/09 00:43:47;;;;;;;29.47;27.10;;;;;;;;;;5036275;28;20444;-89
2021/11/09 00:46:15;;;;;;;32.27;28.97;;;;;;;;;;5036416;28;20460;-89
2021/11/09 00:48:43;;;;;;;30.73;27.10;;;;;;;;;;5019233;28;20793;-89
2021/11/09 00:51:11;;;;;;;31.37;28.30;;;;;;;;;;5049106;28;20483;-88
2021/11/09 00:53:39;;;;;;;35.23;31.53;;;;;;;;;;5049243;28;20468;-88
2021/11/09 00:56:07;;;;;;;30.27;27.50;;;;;;;;;;5036659;28;20447;-89
2021/11/09 00:58:34;;;;;;;32.90;29.67;;;;;;;;;;5036086;28;20440;-88
2021/11/09 01:01:03;;;;;;;29.67;27.00;;;;;;;;;;5035914;28;20450;-89
2021/11/09 01:03:30;;;;;;;30.50;27.70;;;;;;;;;;5035716;28;20410;-88
2021/11/09 01:05:58;;;;;;;36.30;30.73;;;;;;;;;;5035307;28;20994;-88
2021/11/09 01:08:25;;;;;;;32.07;29.37;;;;;;;;;;5036205;28;20489;-89
2021/11/09 01:10:54;;;;;;;29.97;27.40;;;;;;;;;;5035260;28;20422;-89
2021/11/09 01:13:21;;;;;;;32.50;29.70;;;;;;;;;;5034984;28;20534;-89
2021/11/09 01:15:50;;;;;;;30.87;28.00;;;;;;;;;;5035534;28;20497;-88
2021/11/09 01:18:21;;;;;;;29.27;26.20;;;;;;;;;;5035602;28;20786;-88
2021/11/09 01:20:49;;;;;;;30.40;27.93;;;;;;;;;;5035706;28;20443;-88
2021/11/09 01:23:18;;;;;;;31.50;28.53;;;;;;;;;;5036214;28;20439;-89
2021/11/09 01:25:45;;;;;;;30.70;28.00;;;;;;;;;;5035996;28;20460;-88
2021/11/09 01:28:12;;;;;;;30.97;28.00;;;;;;;;;;5036511;28;20431;-88
2021/11/09 01:30:41;;;;;;;31.17;28.37;;;;;;;;;;5018985;28;20438;-89
2021/11/09 01:33:08;;;;;;;31.90;28.77;;;;;;;;;;5036847;28;20425;-89
2021/11/09 01:35:41;;;;;;;28.83;26.13;;;;;;;;;;5036581;28;20455;-89
2021/11/09 01:38:09;;;;;;;33.53;30.47;;;;;;;;;;5035936;28;20464;-89
2021/11/09 01:40:38;;;;;;;31.23;27.90;;;;;;;;;;5035853;28;20414;-89
2021/11/09 01:43:07;;;;;;;32.20;29.03;;;;;;;;;;5035972;28;20444;-88
2021/11/09 01:45:35;;;;;;;31.20;28.20;;;;;;;;;;5036692;28;20490;-88
2021/11/09 01:48:03;;;;;;;34.67;30.97;;;;;;;;;;5037062;28;20489;-88
2021/11/09 01:50:32;;;;;;;31.43;28.00;;;;;;;;;;5035149;28;20953;-89
2021/11/09 01:53:01;;;;;;;33.23;29.87;;;;;;;;;;5036229;28;20443;-88
2021/11/09 01:55:30;;;;;;;30.37;27.80;;;;;;;;;;5037849;28;20428;-89
2021/11/09 01:57:58;;;;;;;30.20;27.37;;;;;;;;;;5035038;28;20457;-88
2021/11/09 02:00:28;;;;;;;31.90;29.17;;;;;;;;;;5036833;28;20473;-89
2021/11/09 02:02:57;;;;;;;31.27;28.23;;;;;;;;;;5040501;28;20455;-88
2021/11/09 02:05:28;;;;;;;31.80;28.87;;;;;;;;;;5041577;28;20463;-88
2021/11/09 02:07:58;;;;;;;32.70;29.33;;;;;;;;;;5050575;28;20465;-88
2021/11/09 02:10:28;;;;;;;32.27;28.80;;;;;;;;;;5035988;28;20439;-89
2021/11/09 02:12:55;;;;;;;33.37;29.63;;;;;;;;;;5034191;28;20789;-88
2021/11/09 02:15:23;;;;;;;31.30;28.30;;;;;;;;;;5035724;28;20412;-89
2021/11/09 02:17:51;;;;;;;31.80;28.90;;;;;;;;;;5036018;28;20462;-88
2021/11/09 02:20:19;;;;;;;32.10;29.17;;;;;;;;;;5019732;28;20449;-88
2021/11/09 02:22:49;;;;;;;33.53;28.80;;;;;;;;;;5035313;28;20879;-88
2021/11/09 02:25:17;;;;;;;33.50;30.07;;;;;;;;;;5017870;28;20807;-89
2021/11/09 02:27:44;;;;;;;32.33;29.40;;;;;;;;;;5034914;28;20492;-88
2021/11/09 02:30:14;;;;;;;38.17;31.30;;;;;;;;;;5038461;28;20413;-88
2021/11/09 02:32:43;;;;;;;35.30;31.43;;;;;;;;;;5036856;28;20410;-88
2021/11/09 02:35:11;;;;;;;33.50;30.47;;;;;;;;;;5037161;28;20443;-88
2021/11/09 02:37:38;;;;;;;33.03;28.70;;;;;;;;;;5036977;28;20516;-88
2021/11/09 02:40:09;;;;;;;29.47;26.77;;;;;;;;;;5037839;28;20449;-88
2021/11/09 02:42:38;;;;;;;31.20;28.43;;;;;;;;;;5038246;28;20413;-88
2021/11/09 02:45:11;;;;;;;31.07;28.13;;;;;;;;;;5038170;28;20440;-89
2021/11/09 02:47:48;;;;;;;31.13;28.37;;;;;;;;;;5035255;28;20486;-88
2021/11/09 02:50:16;;;;;;;32.60;29.30;;;;;;;;;;5034478;28;20453;-88
2021/11/09 02:52:51;;;;;;;30.80;27.80;;;;;;;;;;5035651;28;20445;-88
2021/11/09 02:55:26;;;;;;;30.20;27.83;;;;;;;;;;5034736;28;20440;-89
2021/11/09 02:58:01;;;;;;;30.37;27.40;;;;;;;;;;5035963;28;20529;-89
2021/11/09 03:00:31;;;;;;;29.80;27.17;;;;;;;;;;5035473;28;20500;-89
2021/11/09 03:03:03;;;;;;;31.37;28.53;;;;;;;;;;5034664;28;20457;-88
2021/11/09 03:05:41;;;;;;;31.67;28.30;;;;;;;;;;5034969;28;20443;-89
2021/11/09 03:08:19;;;;;;;29.20;27.00;;;;;;;;;;5034921;28;20458;-88
2021/11/09 03:10:49;;;;;;;32.17;28.50;;;;;;;;;;5034285;28;20450;-88
2021/11/09 03:13:17;;;;;;;30.37;27.67;;;;;;;;;;5034421;28;20505;-88
2021/11/09 03:15:44;;;;;;;32.20;28.90;;;;;;;;;;5034767;28;20450;-88
2021/11/09 03:18:14;;;;;;;31.07;28.23;;;;;;;;;;5034093;28;20211;-88
2021/11/09 03:20:47;;;;;;;30.33;27.23;;;;;;;;;;5033730;28;20457;-88
2021/11/09 03:45:12;;;;;;;28.93;26.53;;;;;;;;;;5041669;28;20435;-88
2021/11/09 03:47:42;;;;;;;33.17;28.60;;;;;;;;;;5035531;28;20568;-88
2021/11/09 03:50:11;;;;;;;29.10;26.70;;;;;;;;;;5037966;28;20450;-88
2021/11/09 03:52:46;;;;;;;32.77;28.37;;;;;;;;;;5040643;28;20510;-89
2021/11/09 03:55:20;;;;;;;29.97;27.40;;;;;;;;;;5038428;28;20440;-88
2021/11/09 03:57:52;;;;;;;27.77;24.97;;;;;;;;;;5042931;28;20418;-88
2021/11/09 04:00:29;;;;;;;31.23;28.50;;;;;;;;;;5037961;28;20455;-88
2021/11/09 04:03:00;;;;;;;30.00;27.33;;;;;;;;;;5036672;28;20447;-89
2021/11/09 04:05:33;;;;;;;31.50;28.30;;;;;;;;;;5041370;28;20508;-88
2021/11/09 04:08:05;;;;;;;31.10;28.30;;;;;;;;;;5041590;28;20503;-88
2021/11/09 04:10:39;;;;;;;29.87;27.20;;;;;;;;;;5037715;28;20896;-88
2021/11/09 04:13:26;;;;;;;33.03;29.77;;;;;;;;;;5019453;28;20610;-89
2021/11/09 04:18:55;;;;;;;33.57;27.43;;;;;;;;;;5032852;28;20417;-88
2021/11/09 04:21:43;;;;;;;31.23;28.00;;;;;;;;;;5019860;28;20541;-88
2021/11/09 04:27:04;;;;;;;31.77;28.77;;;;;;;;;;5037941;28;20474;-88
2021/11/09 04:29:55;;;;;;;32.30;28.77;;;;;;;;;;5021788;28;20457;-88
2021/11/09 04:35:54;;;;;;;31.07;28.03;;;;;;;;;;5023851;28;20460;-88
2021/11/09 04:52:33;;;;;;;31.27;28.40;;;;;;;;;;5037923;28;20485;-88
2021/11/09 05:09:00;;;;;;;39.70;29.53;;;;;;;;;;4992584;28;20577;-87
2021/11/09 05:11:28;;;;;;;36.03;29.00;;;;;;;;;;4993109;28;20427;-88
2021/11/09 05:13:55;;;;;;;38.83;29.83;;;;;;;;;;4992303;28;20443;-88
2021/11/09 05:16:22;;;;;;;30.50;27.40;;;;;;;;;;4992233;28;20469;-88
2021/11/09 05:18:51;;;;;;;39.13;31.27;;;;;;;;;;4991201;28;20466;-88
2021/11/09 05:21:18;;;;;;;31.93;28.50;;;;;;;;;;4993475;28;20436;-88
2021/11/09 05:23:46;;;;;;;33.43;28.10;;;;;;;;;;4992252;28;20434;-87
2021/11/09 05:26:14;;;;;;;30.97;28.03;;;;;;;;;;4991958;28;20844;-88
2021/11/09 05:28:41;;;;;;;42.80;29.83;;;;;;;;;;4991501;28;20423;-88
2021/11/09 05:31:08;;;;;;;31.27;27.95;;;;;;;;;;4989988;28;20809;-88
2021/11/09 05:33:36;;;;;;;31.93;28.90;;;;;;;;;;4992069;28;20228;-88
2021/11/09 05:36:07;;;;;;;39.08;30.52;;;;;;;;;;5004812;28;20455;-88
2021/11/09 05:38:44;;;;;;;31.37;28.10;;;;;;;;;;5032144;28;20630;-86
2021/11/09 05:41:12;;;;;;;32.77;29.60;;;;;;;;;;5032666;28;20537;-88
2021/11/09 05:43:40;;;;;;;34.33;30.47;;;;;;;;;;5031829;28;20451;-88
2021/11/09 05:46:08;;;;;;;30.85;28.02;;;;;;;;;;5032995;28;20452;-88
2021/11/09 05:48:36;;;;;;;33.47;29.50;;;;;;;;;;5033598;28;20652;-88
2021/11/09 05:51:05;;;;;;;30.07;27.50;;;;;;;;;;5034095;28;20526;-88
2021/11/09 05:53:34;;;;;;;32.17;28.88;;;;;;;;;;5034492;28;20830;-87
2021/11/09 05:56:01;;;;;;;31.27;28.33;;;;;;;;;;5034026;28;20200;-88
2021/11/09 05:58:29;;;;;;;30.77;28.27;;;;;;;;;;5033829;28;20422;-88
2021/11/09 06:00:56;;;;;;;31.47;28.60;;;;;;;;;;5016639;28;21010;-87
2021/11/09 06:03:24;;;;;;;35.20;28.50;;;;;;;;;;5034553;28;20410;-87
2021/11/09 06:05:51;;;;;;;33.00;29.60;;;;;;;;;;5016648;28;20430;-88
2021/11/09 06:08:21;;;;;;;30.30;27.87;;;;;;;;;;5034207;28;20541;-87
2021/11/09 06:10:49;;;;;;;29.15;26.60;;;;;;;;;;5033745;28;20442;-87
2021/11/09 06:13:16;;;;;;;32.58;29.58;;;;;;;;;;5034237;28;20200;-87
2021/11/09 06:15:43;;;;;;;29.30;26.83;;;;;;;;;;5034066;28;20521;-87
2021/11/09 06:18:11;;;;;;;30.90;27.80;;;;;;;;;;5034140;28;20191;-86
2021/11/09 06:20:38;;;;;;;30.40;27.80;;;;;;;;;;5033763;28;20417;-87
2021/11/09 06:23:06;;;;;;;31.83;29.13;;;;;;;;;;5033924;28;20967;-87
2021/11/09 06:25:35;;;;;;;30.33;27.53;;;;;;;;;;5033654;28;20192;-87
2021/11/09 06:28:04;;;;;;;32.40;29.10;;;;;;;;;;5033744;28;20527;-87
2021/11/09 06:30:32;;;;;;;33.80;30.40;;;;;;;;;;5033837;28;20207;-87
2021/11/09 06:32:59;;;;;;;32.80;29.50;;;;;;;;;;5033587;28;20200;-87
2021/11/09 06:35:27;;;;;;;30.83;28.40;;;;;;;;;;5033734;28;20191;-87
2021/11/09 06:37:54;;;;;;;32.90;29.48;;;;;;;;;;5033125;28;20285;-88
2021/11/09 06:40:22;;;;;;;32.67;29.63;;;;;;;;;;5033815;28;20262;-87
2021/11/09 06:42:51;;;;;;;32.38;29.15;;;;;;;;;;5033614;28;20207;-88
2021/11/09 06:45:18;;;;;;;31.90;28.77;;;;;;;;;;5015969;28;20207;-87
2021/11/09 06:47:48;;;;;;;35.47;31.77;;;;;;;;;;5033554;28;20255;-87
2021/11/09 06:50:15;;;;;;;34.97;31.27;;;;;;;;;;5033656;28;20193;-87
2021/11/09 06:52:43;;;;;;;31.10;28.25;;;;;;;;;;5016893;28;20422;-86
2021/11/09 06:55:10;;;;;;;33.95;30.63;;;;;;;;;;5033653;28;20192;-86
2021/11/09 06:57:38;;;;;;;34.85;30.55;;;;;;;;;;5033732;28;20227;-86
2021/11/09 07:00:10;;;;;;;33.72;30.83;;;;;;;;;;5033476;28;20260;-87
2021/11/09 07:02:37;;;;;;;32.80;29.90;;;;;;;;;;5033473;28;20193;-87
2021/11/09 07:05:05;;;;;;;33.63;30.67;;;;;;;;;;5033237;28;20773;-86
2021/11/09 07:07:33;;;;;;;33.00;30.23;;;;;;;;;;5032701;28;20227;-87
2021/11/09 07:10:00;;;;;;;33.90;30.48;;;;;;;;;;5033377;28;20196;-87
2021/11/09 07:12:27;;;;;;;31.70;29.20;;;;;;;;;;5033098;28;20628;-86
2021/11/09 07:14:55;;;;;;;31.77;28.98;;;;;;;;;;5033472;28;20420;-87
2021/11/09 07:17:23;;;;;;;31.02;28.35;;;;;;;;;;5033463;28;20197;-86
2021/11/09 07:19:52;;;;;;;33.30;30.30;;;;;;;;;;5033629;28;20189;-87
2021/11/09 07:22:20;;;;;;;34.95;30.30;;;;;;;;;;5035016;28;20416;-86
2021/11/09 07:24:47;;;;;;;33.83;30.30;;;;;;;;;;5037066;28;20627;-87
2021/11/09 07:27:15;;;;;;;39.53;30.70;;;;;;;;;;5036967;28;20212;-87
2021/11/09 07:29:46;;;;;;;34.27;30.90;;;;;;;;;;5036903;28;20207;-87
2021/11/09 07:32:13;;;;;;;32.70;29.67;;;;;;;;;;5036491;28;20863;-86
2021/11/09 07:34:42;;;;;;;33.20;29.77;;;;;;;;;;5036937;28;20199;-87
2021/11/09 07:37:10;;;;;;;32.80;29.73;;;;;;;;;;5036839;28;20198;-87
2021/11/09 07:39:37;;;;;;;40.17;30.53;;;;;;;;;;5036624;28;20246;-87
2021/11/09 07:42:04;;;;;;;34.13;31.30;;;;;;;;;;5036493;28;20424;-86
2021/11/09 07:44:32;;;;;;;34.92;31.45;;;;;;;;;;5018906;28;20495;-87
2021/11/09 07:46:59;;;;;;;33.55;30.42;;;;;;;;;;5036611;28;20195;-87
2021/11/09 07:49:27;;;;;;;35.20;32.00;;;;;;;;;;5036564;28;20684;-87
2021/11/09 07:51:56;;;;;;;34.97;31.33;;;;;;;;;;5036421;28;20231;-87
2021/11/09 07:54:26;;;;;;;34.97;31.23;;;;;;;;;;5036533;28;20204;-87
2021/11/09 07:57:00;;;;;;;39.13;31.60;;;;;;;;;;5036509;28;20211;-87
2021/11/09 07:59:31;;;;;;;33.90;30.60;;;;;;;;;;5036315;28;20463;-87
2021/11/09 08:02:03;;;;;;;35.33;31.65;;;;;;;;;;5036350;28;20484;-87
2021/11/09 08:04:37;;;;;;;37.88;31.80;;;;;;;;;;5018532;28;20211;-87
2021/11/09 08:07:11;;;;;;;34.85;31.52;;;;;;;;;;5036180;28;20283;-86
2021/11/09 08:09:38;;;;;;;35.60;31.37;;;;;;;;;;5036017;28;20202;-88
2021/11/09 08:12:07;;;;;;;33.83;30.85;;;;;;;;;;5036103;28;20445;-86
2021/11/09 08:14:35;;;;;;;34.95;31.60;;;;;;;;;;5036106;28;20188;-86
2021/11/09 08:17:03;;;;;;;34.70;31.38;;;;;;;;;;5036533;28;20191;-87
2021/11/09 08:19:30;;;;;;;36.97;33.10;;;;;;;;;;5036242;28;20211;-86
2021/11/09 08:21:58;;;;;;;35.10;31.50;;;;;;;;;;5036281;28;20451;-86
2021/11/09 08:24:27;;;;;;;37.53;32.13;;;;;;;;;;5018543;28;20204;-86
2021/11/09 08:26:55;;;;;;;35.25;31.40;;;;;;;;;;5036202;28;20198;-85
2021/11/09 08:29:25;;;;;;;34.63;31.27;;;;;;;;;;5035776;28;20228;-86
2021/11/09 08:31:53;;;;;;;36.00;32.40;;;;;;;;;;5036123;28;20204;-86
2021/11/09 08:34:21;;;;;;;36.40;32.57;;;;;;;;;;5034919;28;20445;-85
2021/11/09 08:36:49;;;;;;;32.33;29.33;;;;;;;;;;5035872;28;20450;-86
2021/11/09 08:39:21;;;;;;;34.40;30.10;;;;;;;;;;5018095;28;20464;-87
2021/11/09 08:41:56;;;;;;;35.33;32.00;;;;;;;;;;5036052;28;20476;-86
2021/11/09 08:44:26;;;;;;;34.00;30.70;;;;;;;;;;5035257;28;20452;-86
2021/11/09 08:46:55;;;;;;;33.23;29.37;;;;;;;;;;5035587;28;20421;-86
2021/11/09 08:49:24;;;;;;;33.85;30.45;;;;;;;;;;5017418;28;20956;-85
2021/11/09 08:51:52;;;;;;;32.90;29.93;;;;;;;;;;5035328;28;20321;-85
2021/11/09 08:54:21;;;;;;;33.80;30.20;;;;;;;;;;5035268;28;20444;-85
2021/11/09 09:05:14;;;;;;;32.13;28.93;;;;;;;;;;4974716;28;20865;-87
2021/11/09 09:07:42;;;;;;;31.53;28.60;;;;;;;;;;4958470;28;20446;-86
2021/11/09 09:10:11;;;;;;;33.07;29.50;;;;;;;;;;4974539;28;20541;-86
2021/11/09 09:12:41;;;;;;;30.37;27.80;;;;;;;;;;4974706;28;20448;-87
2021/11/09 09:15:11;;;;;;;31.20;28.43;;;;;;;;;;4974379;28;20494;-86
2021/11/09 09:17:38;;;;;;;29.20;26.60;;;;;;;;;;4974112;28;20453;-87
2021/11/09 09:20:11;;;;;;;33.50;30.50;;;;;;;;;;4974389;28;20453;-86
2021/11/09 09:22:41;;;;;;;30.43;27.23;;;;;;;;;;4957931;28;20508;-86
2021/11/09 09:33:39;;;;;;;28.57;25.70;;;;;;;;;;4973952;28;20450;-86
2021/11/09 09:52:52;;;;;;;28.20;25.70;;;;;;;;;;5034324;28;20408;-86
2021/11/09 09:55:34;;;;;;;28.37;25.87;;;;;;;;;;5034490;28;20500;-86
2021/11/09 09:58:02;;;;;;;27.87;25.57;;;;;;;;;;5034320;28;20853;-84
2021/11/09 10:00:29;;;;;;;28.67;25.87;;;;;;;;;;5034102;28;20464;-85
2021/11/09 10:02:59;;;;;;;27.10;25.10;;;;;;;;;;5033866;28;20446;-86
2021/11/09 10:05:27;;;;;;;28.20;25.60;;;;;;;;;;5016334;28;20910;-85
2021/11/09 10:07:59;;;;;;;26.40;24.23;;;;;;;;;;5033620;28;20921;-85
2021/11/09 10:10:27;;;;;;;26.80;24.40;;;;;;;;;;5033773;28;20413;-83
2021/11/09 10:13:00;;;;;;;25.47;23.57;;;;;;;;;;5033843;28;20607;-84
2021/11/09 10:15:28;;;;;;;27.63;25.17;;;;;;;;;;5033957;28;20449;-85
2021/11/09 10:17:57;;;;;;;26.23;24.13;;;;;;;;;;5033196;28;20482;-85
2021/11/09 10:20:27;;;;;;;26.00;24.17;;;;;;;;;;5033619;28;20465;-86
2021/11/09 10:22:56;;;;;;;25.50;23.60;;;;;;;;;;5033884;28;20439;-85
2021/11/09 10:25:24;;;;;;;25.33;23.23;;;;;;;;;;5034237;28;20433;-85
2021/11/09 10:27:53;;;;;;;26.80;24.33;;;;;;;;;;5034052;28;20447;-86
2021/11/09 10:30:22;;;;;;;26.20;23.90;;;;;;;;;;5033981;28;20421;-86
2021/11/09 10:32:49;;;;;;;26.43;24.33;;;;;;;;;;5028853;28;20513;-91
2021/11/09 10:35:17;;;;;;;25.77;23.73;;;;;;;;;;5014005;28;20448;-87
2021/11/09 10:37:50;;;;;;;24.07;22.43;;;;;;;;;;5014619;28;20415;-87
2021/11/09 10:40:18;;;;;;;26.03;23.87;;;;;;;;;;4993681;28;20448;-87
2021/11/09 10:42:47;;;;;;;25.40;23.17;;;;;;;;;;4993498;28;20436;-87
2021/11/09 10:45:15;;;;;;;27.87;25.37;;;;;;;;;;4994462;28;20507;-88
2021/11/09 10:47:43;;;;;;;26.37;24.37;;;;;;;;;;4995864;28;20411;-87
2021/11/09 10:50:15;;;;;;;26.40;24.17;;;;;;;;;;4995980;28;20528;-89
2021/11/09 10:52:42;;;;;;;25.00;22.93;;;;;;;;;;4995335;28;20442;-85
2021/11/09 10:55:15;;;;;;;25.90;23.70;;;;;;;;;;4994491;28;20423;-84
2021/11/09 11:00:34;;;;;;;24.13;22.37;;;;;;;;;;4998412;28;20448;-88
2021/11/09 11:03:21;;;;;;;24.30;22.60;;;;;;;;;;5002448;28;20439;-87
2021/11/09 11:05:49;;;;;;;25.27;23.07;;;;;;;;;;5017609;28;20450;-85
2021/11/09 11:08:17;;;;;;;24.50;22.77;;;;;;;;;;5017508;28;20523;-83
2021/11/09 11:10:46;;;;;;;24.77;22.77;;;;;;;;;;5017067;28;20458;-82
2021/11/09 11:13:20;;;;;;;24.63;22.57;;;;;;;;;;5015267;28;20931;-83
2021/11/09 11:16:07;;;;;;;23.50;22.00;;;;;;;;;;5012499;28;20925;-82
2021/11/09 11:18:35;;;;;;;23.97;21.97;;;;;;;;;;4997673;28;20452;-87
2021/11/09 11:21:03;;;;;;;27.07;24.47;;;;;;;;;;4998099;28;20876;-93
2021/11/09 11:23:30;;;;;;;25.50;23.50;;;;;;;;;;4998324;28;20475;-91
2021/11/09 11:26:00;;;;;;;25.40;23.50;;;;;;;;;;4998056;28;20870;-93
2021/11/09 11:28:29;;;;;;;25.87;23.57;;;;;;;;;;4998188;28;20566;-93
2021/11/09 11:30:57;;;;;;;24.70;22.83;;;;;;;;;;4998156;28;20459;-88
2021/11/09 11:33:25;;;;;;;25.30;23.30;;;;;;;;;;4997969;28;20437;-90
2021/11/09 11:35:53;;;;;;;25.50;23.40;;;;;;;;;;4997971;28;20437;-88
2021/11/09 11:38:23;;;;;;;25.10;23.00;;;;;;;;;;5002018;28;20474;-84
2021/11/09 11:40:53;;;;;;;23.70;22.10;;;;;;;;;;5017557;28;20503;-90
2021/11/09 11:43:39;;;;;;;25.07;23.10;;;;;;;;;;5017531;28;20435;-81
2021/11/09 11:46:08;;;;;;;28.50;25.60;;;;;;;;;;5017892;28;20430;-86
2021/11/09 11:48:57;;;;;;;26.30;23.80;;;;;;;;;;5017013;28;20944;-88
2021/11/09 11:51:24;;;;;;;24.70;22.90;;;;;;;;;;5017359;28;20440;-88
2021/11/09 11:53:54;;;;;;;25.40;23.37;;;;;;;;;;4999967;28;20840;-88
2021/11/09 11:56:21;;;;;;;24.90;23.10;;;;;;;;;;5016738;28;20455;-87
2021/11/09 11:58:49;;;;;;;24.93;23.23;;;;;;;;;;5017293;28;20446;-87
2021/11/09 12:01:38;;;;;;;24.17;22.30;;;;;;;;;;5017051;28;20452;-88
2021/11/09 12:04:09;;;;;;;26.43;24.10;;;;;;;;;;5017229;28;20411;-87
2021/11/09 12:06:49;;;;;;;25.33;23.23;;;;;;;;;;5016897;28;20901;-87
2021/11/09 12:09:29;;;;;;;24.77;23.00;;;;;;;;;;5015923;28;20577;-87
2021/11/09 12:11:57;;;;;;;24.67;22.63;;;;;;;;;;5016728;28;20458;-88
2021/11/09 12:14:24;;;;;;;24.03;22.30;;;;;;;;;;5016615;28;20874;-87
2021/11/09 12:16:55;;;;;;;24.00;22.33;;;;;;;;;;5016751;28;20546;-88
2021/11/09 12:19:55;;;;;;;25.20;23.03;;;;;;;;;;5016545;28;20493;-87
2021/11/09 12:22:25;;;;;;;24.93;23.10;;;;;;;;;;4956383;29;20450;-88
2021/11/09 12:24:55;;;;;;;24.67;22.83;;;;;;;;;;4956278;29;20445;-88
2021/11/09 12:27:23;;;;;;;24.10;22.40;;;;;;;;;;4956501;28;20430;-88
2021/11/09 12:29:52;;;;;;;25.00;22.90;;;;;;;;;;4956148;29;20461;-88
2021/11/09 12:32:30;;;;;;;24.90;22.70;;;;;;;;;;4956278;28;20444;-87
2021/11/09 12:35:01;;;;;;;25.80;23.87;;;;;;;;;;4956287;29;20919;-88
2021/11/09 12:37:29;;;;;;;24.30;22.70;;;;;;;;;;4956191;28;20481;-88
2021/11/09 12:40:11;;;;;;;23.23;21.40;;;;;;;;;;4939754;29;20454;-88
2021/11/09 12:42:53;;;;;;;23.13;21.50;;;;;;;;;;4955767;28;20430;-88
2021/11/09 12:45:21;;;;;;;23.10;21.30;;;;;;;;;;4955753;28;20563;-87
2021/11/09 12:48:00;;;;;;;22.70;20.77;;;;;;;;;;4955566;29;20459;-87
2021/11/09 12:50:27;;;;;;;22.47;20.70;;;;;;;;;;4955930;29;20458;-87
2021/11/09 12:53:03;;;;;;;23.37;21.67;;;;;;;;;;4976334;28;20423;-87
2021/11/09 12:55:30;;;;;;;23.60;21.60;;;;;;;;;;5015910;28;20410;-88
2021/11/09 12:58:12;;;;;;;25.87;23.77;;;;;;;;;;4998457;28;20565;-88
2021/11/09 13:00:42;;;;;;;35.27;32.87;;;;;;;;;;5015457;28;20909;-87
2021/11/09 13:03:26;;;;;;;25.73;23.80;;;;;;;;;;5015648;28;20879;-88
2021/11/09 13:06:01;;;;;;;24.10;22.30;;;;;;;;;;5016029;28;20414;-87
2021/11/09 13:08:40;;;;;;;23.33;21.80;;;;;;;;;;5015740;28;20985;-86
2021/11/09 13:11:23;;;;;;;23.70;22.00;;;;;;;;;;5015523;28;20905;-89
2021/11/09 13:13:50;;;;;;;23.93;22.43;;;;;;;;;;5015839;28;20414;-88
2021/11/09 13:16:22;;;;;;;24.43;22.10;;;;;;;;;;5015573;28;20486;-88
2021/11/09 13:18:51;;;;;;;25.50;23.57;;;;;;;;;;5014628;28;20418;-88
2021/11/09 13:21:25;;;;;;;23.80;21.87;;;;;;;;;;5015285;28;20983;-89
2021/11/09 13:23:53;;;;;;;24.87;23.07;;;;;;;;;;5015238;28;20546;-89
2021/11/09 13:26:20;;;;;;;24.00;22.27;;;;;;;;;;4998401;28;20852;-89
2021/11/09 13:28:49;;;;;;;22.70;21.30;;;;;;;;;;5015107;28;20433;-89
2021/11/09 13:31:16;;;;;;;23.87;21.97;;;;;;;;;;5015553;28;20453;-89
2021/11/09 13:33:46;;;;;;;28.97;27.33;;;;;;;;;;5014978;28;21033;-89
2021/11/09 13:36:18;;;;;;;25.63;23.67;;;;;;;;;;5015486;28;20824;-83
2021/11/09 13:38:45;;;;;;;24.50;22.70;;;;;;;;;;5015694;28;20508;-89
2021/11/09 13:41:16;;;;;;;24.53;22.43;;;;;;;;;;4997735;28;20442;-89
2021/11/09 13:43:46;;;;;;;23.80;22.20;;;;;;;;;;5013672;28;20460;-86
2021/11/09 13:46:15;;;;;;;33.47;30.97;;;;;;;;;;5014602;28;20448;-86
2021/11/09 13:48:44;;;;;;;44.73;41.87;;;;;;;;;;5014504;28;20791;-84
2021/11/09 13:51:12;;;;;;;23.03;21.40;;;;;;;;;;5014416;28;20455;-86
2021/11/09 13:53:43;;;;;;;24.03;22.30;;;;;;;;;;4998458;28;20770;-93
2021/11/09 13:56:13;;;;;;;23.73;22.07;;;;;;;;;;5015327;28;20447;-93
2021/11/09 13:58:40;;;;;;;24.47;22.67;;;;;;;;;;5014750;28;20954;-93
2021/11/09 14:01:10;;;;;;;24.47;22.67;;;;;;;;;;5014862;28;20438;-94
2021/11/09 14:03:59;;;;;;;24.63;22.80;;;;;;;;;;5015054;28;20515;-89
2021/11/09 14:06:50;;;;;;;24.43;22.57;;;;;;;;;;5014554;28;20920;-89
2021/11/09 14:15:21;;;;;;;23.70;22.13;;;;;;;;;;5008934;28;20422;-89
2021/11/09 14:17:50;;;;;;;23.77;22.23;;;;;;;;;;5015813;28;20431;-90
2021/11/09 14:20:18;;;;;;;23.50;21.97;;;;;;;;;;5014985;28;20400;-90
2021/11/09 14:22:47;;;;;;;24.30;22.20;;;;;;;;;;5015058;28;20434;-90
2021/11/09 14:25:17;;;;;;;24.50;22.70;;;;;;;;;;5014734;28;20435;-90
2021/11/09 14:27:46;;;;;;;25.03;23.03;;;;;;;;;;5014831;28;20440;-90
2021/11/09 14:30:19;;;;;;;24.90;22.97;;;;;;;;;;5014140;28;20466;-90
2021/11/09 14:32:47;;;;;;;90.77;86.57;;;;;;;;;;5013906;28;20439;-90
2021/11/09 14:35:19;;;;;;;109.80;103.50;;;;;;;;;;5014493;28;20412;-90
2021/11/09 14:37:53;;;;;;;176.00;158.60;;;;;;;;;;5014635;28;20820;-90
2021/11/09 14:40:30;;;;;;;326.10;240.63;;;;;;;;;;5013839;28;20468;-91
2021/11/09 14:43:07;;;;;;;26.37;24.37;;;;;;;;;;4996581;28;20463;-90
2021/11/09 14:45:36;;;;;;;81.60;77.20;;;;;;;;;;5014875;28;20481;-92
2021/11/09 14:48:08;;;;;;;46.30;43.77;;;;;;;;;;5014316;28;20426;-89
2021/11/09 14:50:39;;;;;;;276.07;234.57;;;;;;;;;;5013595;28;20578;-89
2021/11/09 14:53:11;;;;;;;273.60;232.87;;;;;;;;;;5013240;28;20472;-90
2021/11/09 14:55:43;;;;;;;212.97;192.53;;;;;;;;;;5014086;28;20773;-90
2021/11/09 14:58:28;;;;;;;227.40;204.80;;;;;;;;;;5014210;28;21081;-89
2021/11/09 15:01:01;;;;;;;152.40;142.57;;;;;;;;;;5014399;28;20527;-89
2021/11/09 15:03:31;;;;;;;146.70;138.20;;;;;;;;;;5014051;28;20427;-89
2021/11/09 15:06:01;;;;;;;97.57;91.57;;;;;;;;;;5014191;28;20480;-90
2021/11/09 15:08:35;;;;;;;125.40;118.13;;;;;;;;;;5014313;28;20491;-90
2021/11/09 15:11:17;;;;;;;199.70;185.37;;;;;;;;;;4996672;28;20493;-89
2021/11/09 15:30:41;;;;;;;180.07;162.87;;;;;;;;;;4972170;28;20590;-89
2021/11/09 15:33:15;;;;;;;255.70;188.53;;;;;;;;;;4973225;28;20457;-88
2021/11/09 15:35:56;;;;;;;339.27;196.52;;;;;;;;;;4973372;28;20891;-88
2021/11/09 15:38:25;;;;;;;219.87;200.67;;;;;;;;;;4972659;28;20195;-88
2021/11/09 15:40:53;;;;;;;217.67;173.70;;;;;;;;;;4973767;28;20449;-90
2021/11/09 15:43:22;;;;;;;158.60;145.90;;;;;;;;;;4981452;28;20446;-89
2021/11/09 15:45:53;;;;;;;187.77;169.80;;;;;;;;;;4977105;28;20829;-90
2021/11/09 15:48:20;;;;;;;272.50;184.47;;;;;;;;;;4981143;28;20481;-90
2021/11/09 15:50:48;;;;;;;334.57;182.70;;;;;;;;;;4962509;28;20497;-90
2021/11/09 15:53:15;;;;;;;258.00;173.60;;;;;;;;;;4998625;28;20466;-90
2021/11/09 15:55:43;;;;;;;353.63;188.98;;;;;;;;;;5017127;28;20463;-90
2021/11/09 15:58:10;;;;;;;279.15;174.90;;;;;;;;;;4999732;28;20969;-91
2021/11/09 16:00:39;;;;;;;330.15;186.55;;;;;;;;;;5017573;28;20197;-91
2021/11/09 16:03:07;;;;;;;160.15;144.02;;;;;;;;;;5017033;28;20194;-90
2021/11/09 16:05:36;;;;;;;229.18;161.05;;;;;;;;;;5017028;28;20193;-92
2021/11/09 16:08:04;;;;;;;234.23;166.93;;;;;;;;;;5017239;28;20301;-91
2021/11/09 16:10:34;;;;;;;422.20;200.40;;;;;;;;;;5017183;28;20484;-92
2021/11/09 16:13:02;;;;;;;142.53;130.00;;;;;;;;;;5017071;28;20189;-91
2021/11/09 16:15:29;;;;;;;157.63;142.30;;;;;;;;;;5017296;28;20434;-91
2021/11/09 16:17:58;;;;;;;207.50;149.23;;;;;;;;;;5016608;28;20444;-91
2021/11/09 16:20:27;;;;;;;233.73;150.88;;;;;;;;;;5016821;28;20431;-91
2021/11/09 16:22:55;;;;;;;285.23;152.57;;;;;;;;;;5017073;28;20254;-91
2021/11/09 16:25:22;;;;;;;293.52;148.57;;;;;;;;;;5017121;28;20539;-92
2021/11/09 16:27:50;;;;;;;369.45;153.60;;;;;;;;;;5017060;28;20620;-93
2021/11/09 16:30:18;;;;;;;403.08;164.70;;;;;;;;;;4998996;28;20231;-93